sensor_id;sensor_type;location;lat;lon;timestamp;P1;durP1;ratioP1;P2;durP2;ratioP2
45358;SDS011;31096;49.292;8.710;2023-05-14T00:01:33;4.23;;;2.33;;
45358;SDS011;31096;49.292;8.710;2023-05-14T00:06:25;4.50;;;2.40;;
45358;SDS011;31096;49.292;8.710;2023-05-14T00:11:15;4.13;;;2.37;;
45358;SDS011;31096;49.292;8.710;2023-05-14T00:16:06;4.40;;;2.80;;
45358;SDS011;31096;49.292;8.710;2023-05-14T00:20:57;5.20;;;2.75;;
45358;SDS011;31096;49.292;8.710;2023-05-14T00:25:47;4.80;;;2.97;;
45358;SDS011;31096;49.292;8.710;2023-05-14T00:30:38;4.20;;;2.78;;
45358;SDS011;31096;49.292;8.710;2023-05-14T00:35:29;4.57;;;2.80;;
45358;SDS011;31096;49.292;8.710;2023-05-14T00:40:20;4.10;;;2.50;;
45358;SDS011;31096;49.292;8.710;2023-05-14T00:45:14;4.85;;;2.60;;
45358;SDS011;31096;49.292;8.710;2023-05-14T00:50:05;4.90;;;2.70;;
45358;SDS011;31096;49.292;8.710;2023-05-14T00:54:56;4.95;;;2.45;;
45358;SDS011;31096;49.292;8.710;2023-05-14T00:59:48;5.25;;;3.22;;
45358;SDS011;31096;49.292;8.710;2023-05-14T01:04:38;4.40;;;2.77;;
45358;SDS011;31096;49.292;8.710;2023-05-14T01:14:56;4.80;;;3.20;;
45358;SDS011;31096;49.292;8.710;2023-05-14T01:19:55;4.95;;;2.90;;
45358;SDS011;31096;49.292;8.710;2023-05-14T01:24:47;4.20;;;2.67;;
45358;SDS011;31096;49.292;8.710;2023-05-14T01:29:37;5.60;;;3.27;;
45358;SDS011;31096;49.292;8.710;2023-05-14T01:34:35;4.30;;;2.80;;
45358;SDS011;31096;49.292;8.710;2023-05-14T01:39:26;4.70;;;2.80;;
45358;SDS011;31096;49.292;8.710;2023-05-14T01:44:17;4.90;;;2.60;;
45358;SDS011;31096;49.292;8.710;2023-05-14T01:49:07;5.20;;;3.30;;
45358;SDS011;31096;49.292;8.710;2023-05-14T01:53:58;4.60;;;3.10;;
45358;SDS011;31096;49.292;8.710;2023-05-14T01:58:49;5.10;;;3.03;;
45358;SDS011;31096;49.292;8.710;2023-05-14T02:03:40;5.60;;;2.97;;
45358;SDS011;31096;49.292;8.710;2023-05-14T02:08:30;5.23;;;3.10;;
45358;SDS011;31096;49.292;8.710;2023-05-14T02:13:21;6.28;;;3.53;;
45358;SDS011;31096;49.292;8.710;2023-05-14T02:18:12;5.13;;;2.67;;
45358;SDS011;31096;49.292;8.710;2023-05-14T02:23:02;5.77;;;3.47;;
45358;SDS011;31096;49.292;8.710;2023-05-14T02:27:53;5.20;;;3.28;;
45358;SDS011;31096;49.292;8.710;2023-05-14T02:32:44;5.20;;;3.40;;
45358;SDS011;31096;49.292;8.710;2023-05-14T02:37:34;5.93;;;3.73;;
45358;SDS011;31096;49.292;8.710;2023-05-14T02:42:25;5.32;;;3.75;;
45358;SDS011;31096;49.292;8.710;2023-05-14T02:47:16;5.63;;;3.80;;
45358;SDS011;31096;49.292;8.710;2023-05-14T02:52:07;7.63;;;3.93;;
45358;SDS011;31096;49.292;8.710;2023-05-14T02:56:57;5.80;;;3.30;;
45358;SDS011;31096;49.292;8.710;2023-05-14T03:01:48;5.70;;;3.70;;
45358;SDS011;31096;49.292;8.710;2023-05-14T03:06:39;7.50;;;4.28;;
45358;SDS011;31096;49.292;8.710;2023-05-14T03:11:30;5.33;;;3.07;;
45358;SDS011;31096;49.292;8.710;2023-05-14T03:16:20;5.33;;;3.90;;
45358;SDS011;31096;49.292;8.710;2023-05-14T03:21:11;5.43;;;3.47;;
45358;SDS011;31096;49.292;8.710;2023-05-14T03:26:02;6.23;;;4.00;;
45358;SDS011;31096;49.292;8.710;2023-05-14T03:30:53;6.20;;;4.13;;
45358;SDS011;31096;49.292;8.710;2023-05-14T03:35:44;6.83;;;4.30;;
45358;SDS011;31096;49.292;8.710;2023-05-14T03:40:35;5.70;;;3.87;;
45358;SDS011;31096;49.292;8.710;2023-05-14T03:45:26;6.20;;;3.92;;
45358;SDS011;31096;49.292;8.710;2023-05-14T03:50:19;6.47;;;3.42;;
45358;SDS011;31096;49.292;8.710;2023-05-14T03:55:09;5.97;;;3.67;;
45358;SDS011;31096;49.292;8.710;2023-05-14T04:00:00;6.97;;;4.50;;
45358;SDS011;31096;49.292;8.710;2023-05-14T04:04:51;5.97;;;3.80;;
45358;SDS011;31096;49.292;8.710;2023-05-14T04:09:42;6.07;;;3.83;;
45358;SDS011;31096;49.292;8.710;2023-05-14T04:14:33;7.47;;;4.10;;
45358;SDS011;31096;49.292;8.710;2023-05-14T04:19:23;6.30;;;4.10;;
45358;SDS011;31096;49.292;8.710;2023-05-14T04:24:14;5.97;;;4.10;;
45358;SDS011;31096;49.292;8.710;2023-05-14T04:29:06;7.15;;;4.30;;
45358;SDS011;31096;49.292;8.710;2023-05-14T04:33:56;6.27;;;4.40;;
45358;SDS011;31096;49.292;8.710;2023-05-14T04:38:47;6.77;;;4.00;;
45358;SDS011;31096;49.292;8.710;2023-05-14T04:43:38;5.95;;;3.90;;
45358;SDS011;31096;49.292;8.710;2023-05-14T04:48:29;5.90;;;4.13;;
45358;SDS011;31096;49.292;8.710;2023-05-14T04:53:19;6.28;;;4.22;;
45358;SDS011;31096;49.292;8.710;2023-05-14T04:58:10;6.57;;;4.33;;
45358;SDS011;31096;49.292;8.710;2023-05-14T05:03:01;5.70;;;4.13;;
45358;SDS011;31096;49.292;8.710;2023-05-14T05:07:52;5.65;;;3.80;;
45358;SDS011;31096;49.292;8.710;2023-05-14T05:12:43;6.70;;;4.50;;
45358;SDS011;31096;49.292;8.710;2023-05-14T05:17:34;8.70;;;4.20;;
45358;SDS011;31096;49.292;8.710;2023-05-14T05:22:25;6.03;;;4.13;;
45358;SDS011;31096;49.292;8.710;2023-05-14T05:27:15;6.10;;;4.13;;
45358;SDS011;31096;49.292;8.710;2023-05-14T05:32:06;5.77;;;3.40;;
45358;SDS011;31096;49.292;8.710;2023-05-14T05:36:57;5.85;;;4.18;;
45358;SDS011;31096;49.292;8.710;2023-05-14T05:41:48;7.53;;;4.63;;
45358;SDS011;31096;49.292;8.710;2023-05-14T05:46:38;7.20;;;3.73;;
45358;SDS011;31096;49.292;8.710;2023-05-14T05:51:29;5.78;;;4.07;;
45358;SDS011;31096;49.292;8.710;2023-05-14T05:56:20;5.40;;;3.97;;
45358;SDS011;31096;49.292;8.710;2023-05-14T06:01:11;6.40;;;4.20;;
45358;SDS011;31096;49.292;8.710;2023-05-14T06:06:01;6.50;;;4.57;;
45358;SDS011;31096;49.292;8.710;2023-05-14T06:10:52;6.03;;;4.18;;
45358;SDS011;31096;49.292;8.710;2023-05-14T06:15:43;6.20;;;4.20;;
45358;SDS011;31096;49.292;8.710;2023-05-14T06:20:33;7.20;;;4.47;;
45358;SDS011;31096;49.292;8.710;2023-05-14T06:25:24;7.13;;;4.30;;
45358;SDS011;31096;49.292;8.710;2023-05-14T06:30:15;5.73;;;3.97;;
45358;SDS011;31096;49.292;8.710;2023-05-14T06:35:06;6.63;;;3.90;;
45358;SDS011;31096;49.292;8.710;2023-05-14T06:39:57;7.00;;;4.53;;
45358;SDS011;31096;49.292;8.710;2023-05-14T06:44:48;6.45;;;4.47;;
45358;SDS011;31096;49.292;8.710;2023-05-14T06:49:38;6.23;;;4.20;;
45358;SDS011;31096;49.292;8.710;2023-05-14T06:54:29;6.47;;;4.60;;
45358;SDS011;31096;49.292;8.710;2023-05-14T06:59:20;5.93;;;4.60;;
45358;SDS011;31096;49.292;8.710;2023-05-14T07:04:11;6.10;;;4.17;;
45358;SDS011;31096;49.292;8.710;2023-05-14T07:09:01;6.57;;;4.47;;
45358;SDS011;31096;49.292;8.710;2023-05-14T07:13:52;6.00;;;3.92;;
45358;SDS011;31096;49.292;8.710;2023-05-14T07:18:43;6.63;;;4.37;;
45358;SDS011;31096;49.292;8.710;2023-05-14T07:23:34;7.35;;;4.35;;
45358;SDS011;31096;49.292;8.710;2023-05-14T07:28:26;6.57;;;4.45;;
45358;SDS011;31096;49.292;8.710;2023-05-14T07:33:17;6.50;;;4.80;;
45358;SDS011;31096;49.292;8.710;2023-05-14T07:38:08;8.57;;;5.10;;
45358;SDS011;31096;49.292;8.710;2023-05-14T07:42:59;5.85;;;4.10;;
45358;SDS011;31096;49.292;8.710;2023-05-14T07:47:50;6.40;;;4.70;;
45358;SDS011;31096;49.292;8.710;2023-05-14T07:52:41;7.03;;;4.93;;
45358;SDS011;31096;49.292;8.710;2023-05-14T07:57:31;6.50;;;4.37;;
45358;SDS011;31096;49.292;8.710;2023-05-14T08:02:22;5.85;;;4.00;;
45358;SDS011;31096;49.292;8.710;2023-05-14T08:07:13;6.77;;;4.23;;
45358;SDS011;31096;49.292;8.710;2023-05-14T08:12:04;6.07;;;3.93;;
45358;SDS011;31096;49.292;8.710;2023-05-14T08:16:55;5.90;;;4.22;;
45358;SDS011;31096;49.292;8.710;2023-05-14T08:21:46;5.60;;;4.17;;
45358;SDS011;31096;49.292;8.710;2023-05-14T08:26:37;5.88;;;4.05;;
45358;SDS011;31096;49.292;8.710;2023-05-14T08:31:27;5.03;;;3.60;;
45358;SDS011;31096;49.292;8.710;2023-05-14T08:36:18;6.68;;;4.38;;
45358;SDS011;31096;49.292;8.710;2023-05-14T08:41:09;6.33;;;3.67;;
45358;SDS011;31096;49.292;8.710;2023-05-14T08:46:01;5.50;;;3.95;;
45358;SDS011;31096;49.292;8.710;2023-05-14T08:50:55;6.13;;;4.17;;
45358;SDS011;31096;49.292;8.710;2023-05-14T08:55:46;5.40;;;3.90;;
45358;SDS011;31096;49.292;8.710;2023-05-14T09:00:40;6.28;;;4.05;;
45358;SDS011;31096;49.292;8.710;2023-05-14T09:05:31;5.43;;;3.92;;
45358;SDS011;31096;49.292;8.710;2023-05-14T09:10:22;5.43;;;3.90;;
45358;SDS011;31096;49.292;8.710;2023-05-14T09:15:12;5.57;;;4.05;;
45358;SDS011;31096;49.292;8.710;2023-05-14T09:20:05;5.73;;;4.07;;
45358;SDS011;31096;49.292;8.710;2023-05-14T09:25:03;5.55;;;4.03;;
45358;SDS011;31096;49.292;8.710;2023-05-14T09:30:03;5.18;;;3.95;;
45358;SDS011;31096;49.292;8.710;2023-05-14T09:34:55;4.73;;;3.30;;
45358;SDS011;31096;49.292;8.710;2023-05-14T09:39:45;6.53;;;3.45;;
45358;SDS011;31096;49.292;8.710;2023-05-14T09:44:36;4.67;;;3.33;;
45358;SDS011;31096;49.292;8.710;2023-05-14T09:49:28;4.57;;;2.97;;
45358;SDS011;31096;49.292;8.710;2023-05-14T09:54:18;5.30;;;3.53;;
45358;SDS011;31096;49.292;8.710;2023-05-14T09:59:09;5.73;;;3.90;;
45358;SDS011;31096;49.292;8.710;2023-05-14T10:04:01;4.70;;;3.63;;
45358;SDS011;31096;49.292;8.710;2023-05-14T10:08:55;4.83;;;3.80;;
45358;SDS011;31096;49.292;8.710;2023-05-14T10:13:50;6.20;;;4.40;;
45358;SDS011;31096;49.292;8.710;2023-05-14T10:19:07;5.47;;;4.00;;
45358;SDS011;31096;49.292;8.710;2023-05-14T10:24:00;4.97;;;3.60;;
45358;SDS011;31096;49.292;8.710;2023-05-14T10:28:56;4.37;;;3.20;;
45358;SDS011;31096;49.292;8.710;2023-05-14T10:33:48;5.38;;;3.58;;
45358;SDS011;31096;49.292;8.710;2023-05-14T10:38:40;4.70;;;3.38;;
45358;SDS011;31096;49.292;8.710;2023-05-14T10:43:35;5.33;;;3.80;;
45358;SDS011;31096;49.292;8.710;2023-05-14T10:48:27;7.78;;;4.28;;
45358;SDS011;31096;49.292;8.710;2023-05-14T10:53:18;6.53;;;4.80;;
45358;SDS011;31096;49.292;8.710;2023-05-14T10:58:10;5.82;;;4.28;;
45358;SDS011;31096;49.292;8.710;2023-05-14T11:03:02;6.75;;;4.70;;
45358;SDS011;31096;49.292;8.710;2023-05-14T11:07:55;6.73;;;4.70;;
45358;SDS011;31096;49.292;8.710;2023-05-14T11:12:47;6.53;;;4.45;;
45358;SDS011;31096;49.292;8.710;2023-05-14T11:17:41;5.82;;;4.15;;
45358;SDS011;31096;49.292;8.710;2023-05-14T11:22:33;6.07;;;4.10;;
45358;SDS011;31096;49.292;8.710;2023-05-14T11:27:25;7.60;;;4.10;;
45358;SDS011;31096;49.292;8.710;2023-05-14T11:32:16;5.32;;;3.90;;
45358;SDS011;31096;49.292;8.710;2023-05-14T11:37:07;5.70;;;4.27;;
45358;SDS011;31096;49.292;8.710;2023-05-14T11:42:01;5.70;;;4.07;;
45358;SDS011;31096;49.292;8.710;2023-05-14T11:46:54;6.15;;;4.18;;
45358;SDS011;31096;49.292;8.710;2023-05-14T11:51:46;7.10;;;4.70;;
45358;SDS011;31096;49.292;8.710;2023-05-14T11:56:37;5.73;;;4.50;;
45358;SDS011;31096;49.292;8.710;2023-05-14T12:01:27;6.03;;;4.27;;
45358;SDS011;31096;49.292;8.710;2023-05-14T12:06:29;5.63;;;4.15;;
45358;SDS011;31096;49.292;8.710;2023-05-14T12:11:21;5.78;;;3.92;;
45358;SDS011;31096;49.292;8.710;2023-05-14T12:16:11;5.47;;;3.87;;
45358;SDS011;31096;49.292;8.710;2023-05-14T12:21:02;5.43;;;4.17;;
45358;SDS011;31096;49.292;8.710;2023-05-14T12:26:00;6.43;;;3.88;;
45358;SDS011;31096;49.292;8.710;2023-05-14T12:30:56;5.93;;;3.60;;
45358;SDS011;31096;49.292;8.710;2023-05-14T12:35:47;6.27;;;3.97;;
45358;SDS011;31096;49.292;8.710;2023-05-14T12:40:38;4.90;;;3.58;;
45358;SDS011;31096;49.292;8.710;2023-05-14T12:45:29;5.18;;;3.78;;
45358;SDS011;31096;49.292;8.710;2023-05-14T12:50:20;5.07;;;3.73;;
45358;SDS011;31096;49.292;8.710;2023-05-14T12:55:11;5.07;;;3.67;;
45358;SDS011;31096;49.292;8.710;2023-05-14T13:00:02;6.93;;;3.73;;
45358;SDS011;31096;49.292;8.710;2023-05-14T13:04:56;6.70;;;4.10;;
45358;SDS011;31096;49.292;8.710;2023-05-14T13:09:47;5.07;;;3.37;;
45358;SDS011;31096;49.292;8.710;2023-05-14T13:14:38;5.20;;;3.60;;
45358;SDS011;31096;49.292;8.710;2023-05-14T13:19:28;6.35;;;3.53;;
45358;SDS011;31096;49.292;8.710;2023-05-14T13:24:19;5.80;;;3.63;;
45358;SDS011;31096;49.292;8.710;2023-05-14T13:29:10;4.80;;;3.72;;
45358;SDS011;31096;49.292;8.710;2023-05-14T13:34:01;4.93;;;3.50;;
45358;SDS011;31096;49.292;8.710;2023-05-14T13:38:52;5.23;;;3.50;;
45358;SDS011;31096;49.292;8.710;2023-05-14T13:43:42;4.65;;;3.30;;
45358;SDS011;31096;49.292;8.710;2023-05-14T13:48:33;6.17;;;4.10;;
45358;SDS011;31096;49.292;8.710;2023-05-14T13:53:26;5.95;;;3.90;;
45358;SDS011;31096;49.292;8.710;2023-05-14T13:58:16;4.90;;;3.57;;
45358;SDS011;31096;49.292;8.710;2023-05-14T14:03:07;4.95;;;3.03;;
45358;SDS011;31096;49.292;8.710;2023-05-14T14:07:58;5.50;;;3.90;;
45358;SDS011;31096;49.292;8.710;2023-05-14T14:12:49;4.85;;;3.50;;
45358;SDS011;31096;49.292;8.710;2023-05-14T14:17:40;4.70;;;3.33;;
45358;SDS011;31096;49.292;8.710;2023-05-14T14:22:30;5.47;;;3.88;;
45358;SDS011;31096;49.292;8.710;2023-05-14T14:27:21;4.73;;;3.10;;
45358;SDS011;31096;49.292;8.710;2023-05-14T14:32:12;4.93;;;3.70;;
45358;SDS011;31096;49.292;8.710;2023-05-14T14:37:02;4.47;;;3.30;;
45358;SDS011;31096;49.292;8.710;2023-05-14T14:41:53;5.00;;;3.67;;
45358;SDS011;31096;49.292;8.710;2023-05-14T14:46:44;5.80;;;3.93;;
45358;SDS011;31096;49.292;8.710;2023-05-14T14:51:36;5.00;;;3.77;;
45358;SDS011;31096;49.292;8.710;2023-05-14T14:56:26;5.10;;;3.20;;
45358;SDS011;31096;49.292;8.710;2023-05-14T15:01:17;5.30;;;3.87;;
45358;SDS011;31096;49.292;8.710;2023-05-14T15:06:08;4.60;;;3.23;;
45358;SDS011;31096;49.292;8.710;2023-05-14T15:10:58;4.50;;;3.47;;
45358;SDS011;31096;49.292;8.710;2023-05-14T15:15:49;4.83;;;3.70;;
45358;SDS011;31096;49.292;8.710;2023-05-14T15:20:41;5.50;;;3.22;;
45358;SDS011;31096;49.292;8.710;2023-05-14T15:25:32;5.50;;;3.30;;
45358;SDS011;31096;49.292;8.710;2023-05-14T15:30:22;4.60;;;3.08;;
45358;SDS011;31096;49.292;8.710;2023-05-14T15:35:13;5.43;;;3.47;;
45358;SDS011;31096;49.292;8.710;2023-05-14T15:40:04;4.50;;;3.15;;
45358;SDS011;31096;49.292;8.710;2023-05-14T15:44:57;4.80;;;3.63;;
45358;SDS011;31096;49.292;8.710;2023-05-14T15:49:47;4.85;;;3.50;;
45358;SDS011;31096;49.292;8.710;2023-05-14T15:54:39;4.30;;;3.10;;
45358;SDS011;31096;49.292;8.710;2023-05-14T15:59:29;6.97;;;3.55;;
45358;SDS011;31096;49.292;8.710;2023-05-14T16:04:20;4.93;;;2.90;;
45358;SDS011;31096;49.292;8.710;2023-05-14T16:09:11;5.03;;;3.70;;
45358;SDS011;31096;49.292;8.710;2023-05-14T16:14:01;5.18;;;3.90;;
45358;SDS011;31096;49.292;8.710;2023-05-14T16:18:52;4.83;;;3.57;;
45358;SDS011;31096;49.292;8.710;2023-05-14T16:23:43;4.83;;;3.47;;
45358;SDS011;31096;49.292;8.710;2023-05-14T16:28:34;4.60;;;3.40;;
45358;SDS011;31096;49.292;8.710;2023-05-14T16:33:25;4.65;;;3.08;;
45358;SDS011;31096;49.292;8.710;2023-05-14T16:38:16;4.30;;;3.20;;
45358;SDS011;31096;49.292;8.710;2023-05-14T16:43:08;5.20;;;3.70;;
45358;SDS011;31096;49.292;8.710;2023-05-14T16:47:59;6.00;;;3.60;;
45358;SDS011;31096;49.292;8.710;2023-05-14T16:52:50;6.40;;;3.42;;
45358;SDS011;31096;49.292;8.710;2023-05-14T16:57:40;5.47;;;3.50;;
45358;SDS011;31096;49.292;8.710;2023-05-14T17:02:32;4.68;;;3.20;;
45358;SDS011;31096;49.292;8.710;2023-05-14T17:07:23;4.60;;;3.20;;
45358;SDS011;31096;49.292;8.710;2023-05-14T17:12:14;4.35;;;3.00;;
45358;SDS011;31096;49.292;8.710;2023-05-14T17:17:04;4.43;;;3.00;;
45358;SDS011;31096;49.292;8.710;2023-05-14T17:21:55;4.30;;;2.58;;
45358;SDS011;31096;49.292;8.710;2023-05-14T17:26:46;4.70;;;2.70;;
45358;SDS011;31096;49.292;8.710;2023-05-14T17:31:37;4.70;;;2.87;;
45358;SDS011;31096;49.292;8.710;2023-05-14T17:36:27;3.83;;;2.60;;
45358;SDS011;31096;49.292;8.710;2023-05-14T17:41:18;4.63;;;2.77;;
45358;SDS011;31096;49.292;8.710;2023-05-14T17:46:09;3.90;;;2.25;;
45358;SDS011;31096;49.292;8.710;2023-05-14T17:50:59;4.67;;;2.90;;
45358;SDS011;31096;49.292;8.710;2023-05-14T17:55:50;4.57;;;2.77;;
45358;SDS011;31096;49.292;8.710;2023-05-14T18:00:41;4.07;;;2.77;;
45358;SDS011;31096;49.292;8.710;2023-05-14T18:05:32;5.20;;;3.40;;
45358;SDS011;31096;49.292;8.710;2023-05-14T18:10:24;4.60;;;3.10;;
45358;SDS011;31096;49.292;8.710;2023-05-14T18:15:15;3.97;;;2.35;;
45358;SDS011;31096;49.292;8.710;2023-05-14T18:20:07;4.00;;;2.60;;
45358;SDS011;31096;49.292;8.710;2023-05-14T18:24:58;4.40;;;2.40;;
45358;SDS011;31096;49.292;8.710;2023-05-14T18:29:49;4.07;;;2.35;;
45358;SDS011;31096;49.292;8.710;2023-05-14T18:34:40;4.57;;;2.77;;
45358;SDS011;31096;49.292;8.710;2023-05-14T18:39:31;4.05;;;2.42;;
45358;SDS011;31096;49.292;8.710;2023-05-14T18:44:22;5.00;;;2.30;;
45358;SDS011;31096;49.292;8.710;2023-05-14T18:49:12;4.47;;;2.77;;
45358;SDS011;31096;49.292;8.710;2023-05-14T18:54:03;4.82;;;2.60;;
45358;SDS011;31096;49.292;8.710;2023-05-14T18:58:54;4.33;;;2.60;;
45358;SDS011;31096;49.292;8.710;2023-05-14T19:03:45;5.30;;;2.88;;
45358;SDS011;31096;49.292;8.710;2023-05-14T19:08:35;4.60;;;2.67;;
45358;SDS011;31096;49.292;8.710;2023-05-14T19:13:26;5.47;;;2.80;;
45358;SDS011;31096;49.292;8.710;2023-05-14T19:18:17;4.60;;;2.63;;
45358;SDS011;31096;49.292;8.710;2023-05-14T19:23:09;4.00;;;2.25;;
45358;SDS011;31096;49.292;8.710;2023-05-14T19:28:00;5.10;;;2.30;;
45358;SDS011;31096;49.292;8.710;2023-05-14T19:32:52;4.80;;;2.72;;
45358;SDS011;31096;49.292;8.710;2023-05-14T19:37:43;4.57;;;2.20;;
45358;SDS011;31096;49.292;8.710;2023-05-14T19:42:35;4.32;;;2.50;;
45358;SDS011;31096;49.292;8.710;2023-05-14T19:47:25;4.20;;;2.60;;
45358;SDS011;31096;49.292;8.710;2023-05-14T19:52:17;3.78;;;2.22;;
45358;SDS011;31096;49.292;8.710;2023-05-14T19:57:08;4.00;;;2.30;;
45358;SDS011;31096;49.292;8.710;2023-05-14T20:01:58;5.32;;;2.65;;
45358;SDS011;31096;49.292;8.710;2023-05-14T20:06:50;4.10;;;2.40;;
45358;SDS011;31096;49.292;8.710;2023-05-14T20:11:41;4.18;;;2.40;;
45358;SDS011;31096;49.292;8.710;2023-05-14T20:16:32;4.20;;;2.20;;
45358;SDS011;31096;49.292;8.710;2023-05-14T20:21:23;3.45;;;1.75;;
45358;SDS011;31096;49.292;8.710;2023-05-14T20:26:13;4.87;;;1.97;;
45358;SDS011;31096;49.292;8.710;2023-05-14T20:31:05;4.05;;;2.10;;
45358;SDS011;31096;49.292;8.710;2023-05-14T20:35:55;4.93;;;2.50;;
45358;SDS011;31096;49.292;8.710;2023-05-14T20:40:46;4.20;;;2.67;;
45358;SDS011;31096;49.292;8.710;2023-05-14T20:45:37;3.70;;;2.10;;
45358;SDS011;31096;49.292;8.710;2023-05-14T20:50:30;4.43;;;2.45;;
45358;SDS011;31096;49.292;8.710;2023-05-14T20:55:24;4.10;;;2.30;;
45358;SDS011;31096;49.292;8.710;2023-05-14T21:00:15;4.33;;;2.40;;
45358;SDS011;31096;49.292;8.710;2023-05-14T21:05:06;4.20;;;2.53;;
45358;SDS011;31096;49.292;8.710;2023-05-14T21:09:57;4.37;;;2.50;;
45358;SDS011;31096;49.292;8.710;2023-05-14T21:14:48;5.72;;;2.67;;
45358;SDS011;31096;49.292;8.710;2023-05-14T21:19:39;3.63;;;1.73;;
45358;SDS011;31096;49.292;8.710;2023-05-14T21:24:29;3.73;;;1.93;;
45358;SDS011;31096;49.292;8.710;2023-05-14T21:29:20;5.20;;;2.40;;
45358;SDS011;31096;49.292;8.710;2023-05-14T21:34:13;3.73;;;2.00;;
45358;SDS011;31096;49.292;8.710;2023-05-14T21:39:04;4.50;;;2.75;;
45358;SDS011;31096;49.292;8.710;2023-05-14T21:43:55;6.63;;;2.50;;
45358;SDS011;31096;49.292;8.710;2023-05-14T21:48:46;4.13;;;2.63;;
45358;SDS011;31096;49.292;8.710;2023-05-14T21:53:36;3.90;;;2.00;;
45358;SDS011;31096;49.292;8.710;2023-05-14T21:58:27;4.30;;;2.40;;
45358;SDS011;31096;49.292;8.710;2023-05-14T22:03:18;4.00;;;2.40;;
45358;SDS011;31096;49.292;8.710;2023-05-14T22:08:09;4.50;;;2.40;;
45358;SDS011;31096;49.292;8.710;2023-05-14T22:13:03;5.03;;;2.50;;
45358;SDS011;31096;49.292;8.710;2023-05-14T22:17:53;4.60;;;2.17;;
45358;SDS011;31096;49.292;8.710;2023-05-14T22:22:47;3.83;;;1.93;;
45358;SDS011;31096;49.292;8.710;2023-05-14T22:27:38;5.30;;;2.40;;
45358;SDS011;31096;49.292;8.710;2023-05-14T22:32:29;4.17;;;2.37;;
45358;SDS011;31096;49.292;8.710;2023-05-14T22:37:20;4.15;;;2.60;;
45358;SDS011;31096;49.292;8.710;2023-05-14T22:42:10;4.17;;;2.30;;
45358;SDS011;31096;49.292;8.710;2023-05-14T22:47:02;4.20;;;2.53;;
45358;SDS011;31096;49.292;8.710;2023-05-14T22:51:57;4.53;;;2.57;;
45358;SDS011;31096;49.292;8.710;2023-05-14T22:56:53;3.95;;;2.38;;
45358;SDS011;31096;49.292;8.710;2023-05-14T23:01:47;4.50;;;2.80;;
45358;SDS011;31096;49.292;8.710;2023-05-14T23:06:40;4.90;;;2.47;;
45358;SDS011;31096;49.292;8.710;2023-05-14T23:11:31;4.60;;;2.60;;
45358;SDS011;31096;49.292;8.710;2023-05-14T23:16:22;4.13;;;2.77;;
45358;SDS011;31096;49.292;8.710;2023-05-14T23:21:15;4.22;;;2.30;;
45358;SDS011;31096;49.292;8.710;2023-05-14T23:26:06;4.60;;;2.73;;
45358;SDS011;31096;49.292;8.710;2023-05-14T23:30:57;5.73;;;2.20;;
45358;SDS011;31096;49.292;8.710;2023-05-14T23:35:48;6.55;;;2.50;;
45358;SDS011;31096;49.292;8.710;2023-05-14T23:40:38;4.53;;;2.43;;
45358;SDS011;31096;49.292;8.710;2023-05-14T23:45:29;6.00;;;2.70;;
45358;SDS011;31096;49.292;8.710;2023-05-14T23:50:20;4.80;;;2.93;;
45358;SDS011;31096;49.292;8.710;2023-05-14T23:55:10;3.97;;;2.33;;
